Time;durP1;ratioP1;P1;durP2;ratioP2;P2;SDS_P1;SDS_P2;PMS_P1;PMS_P2;Temp;Humidity;BMP_temperature;BMP_pressure;BME280_temperature;BME280_humidity;BME280_pressure;Samples;Min_cycle;Max_cycle;Signal;HPM_P1;HPM_P2
2023/09/30 00:02:22;;;;;;;0.10;0.10;;;;;;;;;;5133186;28;20051;-50
2023/09/30 00:04:47;;;;;;;0.10;0.10;;;;;;;;;;5132774;28;20142;-52
2023/09/30 00:07:13;;;;;;;0.20;0.20;;;;;;;;;;5133189;28;20047;-51
2023/09/30 00:09:39;;;;;;;0.85;0.30;;;;;;;;;;5132500;28;20119;-51
2023/09/30 00:12:06;;;;;;;0.10;0.10;;;;;;;;;;5125187;27;20054;-50
2023/09/30 00:14:32;;;;;;;0.10;0.10;;;;;;;;;;5132604;28;20039;-51
2023/09/30 00:16:57;;;;;;;0.10;0.10;;;;;;;;;;5133129;28;20118;-51
2023/09/30 00:19:23;;;;;;;0.17;0.17;;;;;;;;;;5132120;28;20047;-52
2023/09/30 00:21:49;;;;;;;0.10;0.10;;;;;;;;;;5132593;28;20130;-51
2023/09/30 00:24:14;;;;;;;0.10;0.10;;;;;;;;;;5124590;28;20051;-50
2023/09/30 00:26:40;;;;;;;0.10;0.10;;;;;;;;;;5112339;28;20060;-52
2023/09/30 00:29:05;;;;;;;0.10;0.10;;;;;;;;;;5125885;28;20051;-51
2023/09/30 00:31:31;;;;;;;0.10;0.10;;;;;;;;;;5132370;28;20043;-52
2023/09/30 00:33:57;;;;;;;0.20;0.20;;;;;;;;;;5127404;28;20540;-50
2023/09/30 00:36:23;;;;;;;0.10;0.10;;;;;;;;;;5112175;28;20450;-52
2023/09/30 00:38:49;;;;;;;0.10;0.10;;;;;;;;;;5123512;28;20051;-52
2023/09/30 00:41:14;;;;;;;0.10;0.10;;;;;;;;;;5131335;27;20051;-51
2023/09/30 00:43:40;;;;;;;0.20;0.20;;;;;;;;;;5131240;28;20195;-51
2023/09/30 00:46:10;;;;;;;0.10;0.10;;;;;;;;;;5132221;28;20067;-51
2023/09/30 00:48:37;;;;;;;0.10;0.10;;;;;;;;;;5132098;28;20415;-52
2023/09/30 00:51:03;;;;;;;0.10;0.10;;;;;;;;;;5131840;28;20047;-51
2023/09/30 00:53:28;;;;;;;0.10;0.10;;;;;;;;;;5131638;28;20054;-51
2023/09/30 00:55:56;;;;;;;0.10;0.10;;;;;;;;;;5132070;28;20051;-52
2023/09/30 00:58:23;;;;;;;0.10;0.10;;;;;;;;;;5132044;28;20467;-52
2023/09/30 01:00:49;;;;;;;0.10;0.10;;;;;;;;;;5132240;28;20089;-51
2023/09/30 01:03:14;;;;;;;0.10;0.10;;;;;;;;;;5132410;28;20315;-51
2023/09/30 01:05:41;;;;;;;0.10;0.10;;;;;;;;;;5132529;28;20051;-51
2023/09/30 01:08:06;;;;;;;0.20;0.20;;;;;;;;;;5132065;28;20517;-52
2023/09/30 01:10:32;;;;;;;0.20;0.20;;;;;;;;;;5131266;27;20043;-50
2023/09/30 01:12:58;;;;;;;0.10;0.10;;;;;;;;;;5090640;28;20491;-52
2023/09/30 01:15:23;;;;;;;0.38;0.15;;;;;;;;;;5090915;28;20058;-50
2023/09/30 01:17:49;;;;;;;0.10;0.10;;;;;;;;;;5097656;28;20047;-51
2023/09/30 01:20:16;;;;;;;0.10;0.10;;;;;;;;;;5132950;28;20191;-52
2023/09/30 01:22:44;;;;;;;0.10;0.10;;;;;;;;;;5132449;28;20050;-53
2023/09/30 01:25:10;;;;;;;0.20;0.20;;;;;;;;;;5132261;28;20079;-51
2023/09/30 01:27:35;;;;;;;0.10;0.10;;;;;;;;;;5129771;28;20050;-52
2023/09/30 01:30:01;;;;;;;0.10;0.10;;;;;;;;;;5132104;28;20051;-51
2023/09/30 01:32:28;;;;;;;0.10;0.10;;;;;;;;;;5131834;28;20058;-52
2023/09/30 01:34:53;;;;;;;0.20;0.20;;;;;;;;;;5130896;28;20051;-52
2023/09/30 01:37:19;;;;;;;0.10;0.10;;;;;;;;;;5118002;28;20044;-51
2023/09/30 01:39:45;;;;;;;0.10;0.10;;;;;;;;;;5130435;28;20043;-52
2023/09/30 01:42:11;;;;;;;0.10;0.10;;;;;;;;;;5131465;28;20047;-51
2023/09/30 01:44:37;;;;;;;0.10;0.10;;;;;;;;;;5131368;28;20138;-51
2023/09/30 01:47:02;;;;;;;0.10;0.10;;;;;;;;;;5123277;28;20519;-50
2023/09/30 01:49:28;;;;;;;0.10;0.10;;;;;;;;;;5130378;28;20107;-51
2023/09/30 01:51:53;;;;;;;0.20;0.20;;;;;;;;;;5130543;27;20154;-51
2023/09/30 01:54:19;;;;;;;0.10;0.10;;;;;;;;;;5130521;28;20058;-50
2023/09/30 01:56:45;;;;;;;0.10;0.10;;;;;;;;;;5130243;28;20425;-51
2023/09/30 01:59:10;;;;;;;0.57;0.47;;;;;;;;;;5130301;28;20063;-51
2023/09/30 02:01:36;;;;;;;0.10;0.10;;;;;;;;;;5130749;28;20053;-51
2023/09/30 02:04:02;;;;;;;0.10;0.10;;;;;;;;;;5130809;28;20078;-51
2023/09/30 02:06:27;;;;;;;0.10;0.10;;;;;;;;;;5131414;28;20039;-51
2023/09/30 02:08:53;;;;;;;0.20;0.20;;;;;;;;;;5130302;28;20044;-50
2023/09/30 02:11:18;;;;;;;0.30;0.30;;;;;;;;;;5130081;28;20054;-51
2023/09/30 02:13:44;;;;;;;0.10;0.10;;;;;;;;;;5130090;28;20099;-51
2023/09/30 02:16:12;;;;;;;0.10;0.10;;;;;;;;;;5130420;28;20399;-51
2023/09/30 02:18:37;;;;;;;0.20;0.20;;;;;;;;;;5130843;28;20051;-50
2023/09/30 02:21:04;;;;;;;0.10;0.10;;;;;;;;;;5130939;28;20047;-51
2023/09/30 02:23:29;;;;;;;0.13;0.13;;;;;;;;;;5130894;28;20488;-52
2023/09/30 02:25:55;;;;;;;0.10;0.10;;;;;;;;;;5131233;28;20158;-51
2023/09/30 02:28:20;;;;;;;0.10;0.10;;;;;;;;;;5123819;28;20476;-51
2023/09/30 02:30:46;;;;;;;0.10;0.10;;;;;;;;;;5130692;28;20526;-50
2023/09/30 02:33:11;;;;;;;0.10;0.10;;;;;;;;;;5130702;28;20047;-51
2023/09/30 02:35:38;;;;;;;0.15;0.15;;;;;;;;;;5130674;28;20096;-49
2023/09/30 02:38:04;;;;;;;0.10;0.10;;;;;;;;;;5124022;28;20047;-50
2023/09/30 02:40:30;;;;;;;0.10;0.10;;;;;;;;;;5130924;28;20122;-49
2023/09/30 02:42:56;;;;;;;0.10;0.10;;;;;;;;;;5130829;28;20487;-45
2023/09/30 02:45:21;;;;;;;0.10;0.10;;;;;;;;;;5131121;28;20100;-46
2023/09/30 02:47:47;;;;;;;0.10;0.10;;;;;;;;;;5123890;28;20059;-49
2023/09/30 02:50:13;;;;;;;0.10;0.10;;;;;;;;;;5131427;28;20080;-51
2023/09/30 02:52:40;;;;;;;0.10;0.10;;;;;;;;;;5130357;28;20047;-51
2023/09/30 02:55:08;;;;;;;0.10;0.10;;;;;;;;;;5130315;28;20070;-51
2023/09/30 02:57:35;;;;;;;0.10;0.10;;;;;;;;;;5130337;28;20101;-50
2023/09/30 03:00:11;;;;;;;0.10;0.10;;;;;;;;;;5130382;28;20062;-51
2023/09/30 03:02:37;;;;;;;0.10;0.10;;;;;;;;;;5129769;27;20075;-50
2023/09/30 03:05:03;;;;;;;0.10;0.10;;;;;;;;;;5130760;28;20053;-51
2023/09/30 03:07:29;;;;;;;0.10;0.10;;;;;;;;;;5131015;28;20142;-51
2023/09/30 03:09:55;;;;;;;0.10;0.10;;;;;;;;;;5116135;28;20047;-51
2023/09/30 03:12:20;;;;;;;0.10;0.10;;;;;;;;;;5124459;28;20078;-51
2023/09/30 03:14:46;;;;;;;0.10;0.10;;;;;;;;;;5130024;28;20081;-50
2023/09/30 03:17:12;;;;;;;0.10;0.10;;;;;;;;;;5129745;28;20039;-51
2023/09/30 03:19:38;;;;;;;0.10;0.10;;;;;;;;;;5129567;28;20050;-51
2023/09/30 03:22:04;;;;;;;0.10;0.10;;;;;;;;;;5130084;28;20047;-51
2023/09/30 03:24:30;;;;;;;0.10;0.10;;;;;;;;;;5130343;28;20047;-51
2023/09/30 03:26:57;;;;;;;0.10;0.10;;;;;;;;;;5130229;28;20051;-51
2023/09/30 03:29:23;;;;;;;0.10;0.10;;;;;;;;;;5123118;28;20089;-51
2023/09/30 03:31:48;;;;;;;0.28;0.28;;;;;;;;;;5109400;28;20537;-51
2023/09/30 03:34:16;;;;;;;0.10;0.10;;;;;;;;;;5109466;28;20538;-50
2023/09/30 03:36:41;;;;;;;0.20;0.20;;;;;;;;;;5109499;28;20043;-50
2023/09/30 03:39:08;;;;;;;0.10;0.10;;;;;;;;;;5123225;28;20463;-52
2023/09/30 03:41:36;;;;;;;0.10;0.10;;;;;;;;;;5129668;28;20054;-51
2023/09/30 03:44:02;;;;;;;0.10;0.10;;;;;;;;;;5130193;28;20068;-51
2023/09/30 03:46:28;;;;;;;0.88;0.30;;;;;;;;;;5129416;28;20084;-49
2023/09/30 03:48:53;;;;;;;0.10;0.10;;;;;;;;;;5125762;28;20043;-49
2023/09/30 03:51:19;;;;;;;0.13;0.13;;;;;;;;;;5110229;28;20074;-51
2023/09/30 03:53:45;;;;;;;0.10;0.10;;;;;;;;;;5108354;28;20079;-51
2023/09/30 03:56:12;;;;;;;0.10;0.10;;;;;;;;;;5109005;28;20054;-50
2023/09/30 03:58:38;;;;;;;0.10;0.10;;;;;;;;;;5118721;28;20054;-51
2023/09/30 04:01:04;;;;;;;0.10;0.10;;;;;;;;;;5129653;28;20058;-52
2023/09/30 04:03:32;;;;;;;0.10;0.10;;;;;;;;;;5129468;28;20051;-52
2023/09/30 04:05:58;;;;;;;0.20;0.20;;;;;;;;;;5129386;28;20570;-52
2023/09/30 04:08:24;;;;;;;0.20;0.20;;;;;;;;;;5128420;28;20072;-51
2023/09/30 04:10:49;;;;;;;0.10;0.10;;;;;;;;;;5120615;28;20245;-50
2023/09/30 04:13:15;;;;;;;0.10;0.10;;;;;;;;;;5128182;28;20075;-50
2023/09/30 04:15:40;;;;;;;0.10;0.10;;;;;;;;;;5130139;27;20419;-50
2023/09/30 04:18:06;;;;;;;0.10;0.10;;;;;;;;;;5131016;28;20088;-52
2023/09/30 04:20:31;;;;;;;0.10;0.10;;;;;;;;;;5132253;28;20039;-51
2023/09/30 04:22:57;;;;;;;0.15;0.15;;;;;;;;;;5132419;28;20047;-52
2023/09/30 04:25:24;;;;;;;0.35;0.35;;;;;;;;;;5132010;28;20047;-51
2023/09/30 04:27:50;;;;;;;0.10;0.10;;;;;;;;;;5113657;28;20047;-52
2023/09/30 04:30:17;;;;;;;0.10;0.10;;;;;;;;;;5131585;28;20058;-50
2023/09/30 04:32:43;;;;;;;0.10;0.10;;;;;;;;;;5130317;28;20043;-52
2023/09/30 04:35:09;;;;;;;0.10;0.10;;;;;;;;;;5131190;28;20311;-50
2023/09/30 04:37:36;;;;;;;0.10;0.10;;;;;;;;;;5131822;28;20144;-51
2023/09/30 04:40:07;;;;;;;0.10;0.10;;;;;;;;;;5133052;28;20426;-52
2023/09/30 04:42:34;;;;;;;0.10;0.10;;;;;;;;;;5116476;28;20070;-52
2023/09/30 04:44:59;;;;;;;0.10;0.10;;;;;;;;;;5112457;28;20048;-50
2023/09/30 04:47:26;;;;;;;0.10;0.10;;;;;;;;;;5112290;28;20826;-51
2023/09/30 04:49:51;;;;;;;0.10;0.10;;;;;;;;;;5132098;28;20055;-51
2023/09/30 04:52:17;;;;;;;0.10;0.10;;;;;;;;;;5123078;28;20044;-51
2023/09/30 04:54:44;;;;;;;0.10;0.10;;;;;;;;;;5131873;28;20552;-50
2023/09/30 04:57:10;;;;;;;0.10;0.10;;;;;;;;;;5132290;28;20050;-52
2023/09/30 04:59:35;;;;;;;0.10;0.10;;;;;;;;;;5132575;28;20051;-51
2023/09/30 05:02:01;;;;;;;0.10;0.10;;;;;;;;;;5132626;28;20058;-51
2023/09/30 05:04:27;;;;;;;0.20;0.20;;;;;;;;;;5132884;28;20175;-51
2023/09/30 05:06:53;;;;;;;0.10;0.10;;;;;;;;;;5132478;28;20543;-52
2023/09/30 05:09:18;;;;;;;0.10;0.10;;;;;;;;;;5132018;27;20050;-50
2023/09/30 05:11:44;;;;;;;0.10;0.10;;;;;;;;;;5113633;28;20060;-50
2023/09/30 05:14:09;;;;;;;0.10;0.10;;;;;;;;;;5110647;28;20072;-50
2023/09/30 05:16:35;;;;;;;0.10;0.10;;;;;;;;;;5111347;28;20055;-51
2023/09/30 05:19:01;;;;;;;0.10;0.10;;;;;;;;;;5124618;28;20070;-51
2023/09/30 05:21:26;;;;;;;0.10;0.10;;;;;;;;;;5131774;28;20103;-51
2023/09/30 05:23:52;;;;;;;0.10;0.10;;;;;;;;;;5131851;28;20058;-50
2023/09/30 05:26:18;;;;;;;0.10;0.10;;;;;;;;;;5131468;27;20126;-52
2023/09/30 05:28:43;;;;;;;0.10;0.10;;;;;;;;;;5131738;28;20050;-51
2023/09/30 05:31:09;;;;;;;0.10;0.10;;;;;;;;;;5131795;28;20050;-52
2023/09/30 05:33:36;;;;;;;0.10;0.10;;;;;;;;;;5129014;28;20677;-51
2023/09/30 05:36:02;;;;;;;0.10;0.10;;;;;;;;;;5131663;28;20047;-51
2023/09/30 05:38:29;;;;;;;0.10;0.10;;;;;;;;;;5131002;28;20051;-50
2023/09/30 05:40:55;;;;;;;0.10;0.10;;;;;;;;;;5131150;28;20156;-51
2023/09/30 05:43:21;;;;;;;0.10;0.10;;;;;;;;;;5123711;28;20047;-51
2023/09/30 05:45:54;;;;;;;0.10;0.10;;;;;;;;;;5131258;28;20104;-51
2023/09/30 05:48:20;;;;;;;0.10;0.10;;;;;;;;;;5130638;28;20071;-51
2023/09/30 05:50:47;;;;;;;0.30;0.30;;;;;;;;;;5131397;28;20138;-52
2023/09/30 05:53:13;;;;;;;0.10;0.10;;;;;;;;;;5123880;28;20097;-51
2023/09/30 05:55:41;;;;;;;0.10;0.10;;;;;;;;;;5131034;28;20047;-51
2023/09/30 05:58:07;;;;;;;0.10;0.10;;;;;;;;;;5130711;28;20043;-51
2023/09/30 06:00:35;;;;;;;0.10;0.10;;;;;;;;;;5131315;28;20051;-50
2023/09/30 06:03:01;;;;;;;0.10;0.10;;;;;;;;;;5131306;28;20051;-50
2023/09/30 06:05:29;;;;;;;0.10;0.10;;;;;;;;;;5130866;28;20126;-51
2023/09/30 06:07:55;;;;;;;;;;;;;;;;;;5130720;28;20054;-52
2023/09/30 06:10:21;;;;;;;0.10;0.10;;;;;;;;;;5123713;28;20019;-51
2023/09/30 06:12:47;;;;;;;0.10;0.10;;;;;;;;;;5110327;28;20048;-51
2023/09/30 06:15:13;;;;;;;0.10;0.10;;;;;;;;;;5129949;28;20150;-50
2023/09/30 06:17:39;;;;;;;0.10;0.10;;;;;;;;;;5130363;28;20103;-51
2023/09/30 06:20:09;;;;;;;0.13;0.13;;;;;;;;;;5130465;28;20096;-50
2023/09/30 06:22:35;;;;;;;0.20;0.20;;;;;;;;;;5130694;28;20107;-52
2023/09/30 06:25:02;;;;;;;0.10;0.10;;;;;;;;;;5130678;28;20047;-53
2023/09/30 06:27:27;;;;;;;0.10;0.10;;;;;;;;;;5130622;28;20058;-51
2023/09/30 06:29:54;;;;;;;0.10;0.10;;;;;;;;;;5130503;28;20051;-52
2023/09/30 06:32:20;;;;;;;0.10;0.10;;;;;;;;;;5130816;28;20043;-51
2023/09/30 06:34:45;;;;;;;0.10;0.10;;;;;;;;;;5129761;28;20066;-51
2023/09/30 06:37:11;;;;;;;0.10;0.10;;;;;;;;;;5130204;27;20044;-51
2023/09/30 06:39:36;;;;;;;0.10;0.10;;;;;;;;;;5129868;28;20410;-51
2023/09/30 06:42:02;;;;;;;0.10;0.10;;;;;;;;;;5130249;28;20043;-52
2023/09/30 06:44:28;;;;;;;0.10;0.10;;;;;;;;;;5127070;28;20480;-52
2023/09/30 06:46:54;;;;;;;0.10;0.10;;;;;;;;;;5130198;28;20074;-50
2023/09/30 06:49:20;;;;;;;0.10;0.10;;;;;;;;;;5130170;28;20043;-50
2023/09/30 06:51:47;;;;;;;0.10;0.10;;;;;;;;;;5130387;28;20550;-51
2023/09/30 06:54:13;;;;;;;0.10;0.10;;;;;;;;;;5128874;28;20051;-51
2023/09/30 06:56:38;;;;;;;0.10;0.10;;;;;;;;;;5130114;28;20047;-50
2023/09/30 06:59:04;;;;;;;0.13;0.13;;;;;;;;;;5129593;28;20051;-52
2023/09/30 07:01:29;;;;;;;0.10;0.10;;;;;;;;;;5130078;28;20047;-51
2023/09/30 07:03:55;;;;;;;0.20;0.20;;;;;;;;;;5130407;28;20107;-52
2023/09/30 07:06:22;;;;;;;0.10;0.10;;;;;;;;;;5129828;28;20055;-51
2023/09/30 07:08:47;;;;;;;0.10;0.10;;;;;;;;;;5120910;28;20046;-51
2023/09/30 07:11:13;;;;;;;0.10;0.10;;;;;;;;;;5130098;28;20043;-51
2023/09/30 07:13:38;;;;;;;0.15;0.15;;;;;;;;;;5129050;28;20510;-51
2023/09/30 07:16:04;;;;;;;0.10;0.10;;;;;;;;;;5129901;28;20051;-52
2023/09/30 07:18:29;;;;;;;0.20;0.20;;;;;;;;;;5128769;28;20077;-51
2023/09/30 07:20:55;;;;;;;0.10;0.10;;;;;;;;;;5129632;28;20043;-49
2023/09/30 07:23:21;;;;;;;0.10;0.10;;;;;;;;;;5129616;28;20407;-51
2023/09/30 07:25:47;;;;;;;0.10;0.10;;;;;;;;;;5129354;28;20043;-51
2023/09/30 07:28:13;;;;;;;0.10;0.10;;;;;;;;;;5129580;28;20055;-50
2023/09/30 07:30:39;;;;;;;0.10;0.10;;;;;;;;;;5129150;28;20078;-52
2023/09/30 07:33:05;;;;;;;0.20;0.20;;;;;;;;;;5129700;28;20398;-51
2023/09/30 07:35:31;;;;;;;0.10;0.10;;;;;;;;;;5125599;28;20054;-50
2023/09/30 07:37:57;;;;;;;0.10;0.10;;;;;;;;;;5113384;28;20043;-52
2023/09/30 07:40:23;;;;;;;0.10;0.10;;;;;;;;;;5129582;28;20074;-51
2023/09/30 07:42:49;;;;;;;0.10;0.10;;;;;;;;;;5129665;28;20087;-51
2023/09/30 07:45:16;;;;;;;0.10;0.10;;;;;;;;;;5129772;28;20051;-51
2023/09/30 07:47:43;;;;;;;0.10;0.10;;;;;;;;;;5120607;28;20048;-51
2023/09/30 07:50:09;;;;;;;0.10;0.10;;;;;;;;;;5131895;27;20043;-51
2023/09/30 07:52:35;;;;;;;0.10;0.10;;;;;;;;;;5133455;28;20066;-51
2023/09/30 07:55:01;;;;;;;0.10;0.10;;;;;;;;;;5133038;28;20043;-50
2023/09/30 07:57:27;;;;;;;0.10;0.10;;;;;;;;;;5116737;28;20043;-51
2023/09/30 07:59:52;;;;;;;0.10;0.10;;;;;;;;;;5133295;28;20051;-51
2023/09/30 08:02:18;;;;;;;0.10;0.10;;;;;;;;;;5133462;28;20092;-50
2023/09/30 08:04:43;;;;;;;0.10;0.10;;;;;;;;;;5133775;28;20070;-51
2023/09/30 08:07:09;;;;;;;0.10;0.10;;;;;;;;;;5133300;27;20054;-51
2023/09/30 08:09:35;;;;;;;0.10;0.10;;;;;;;;;;5132913;28;20055;-51
2023/09/30 08:12:00;;;;;;;0.20;0.20;;;;;;;;;;5131669;28;20459;-51
2023/09/30 08:14:26;;;;;;;0.10;0.10;;;;;;;;;;5132385;28;20407;-51
2023/09/30 08:16:51;;;;;;;0.10;0.10;;;;;;;;;;5132930;28;20039;-51
2023/09/30 08:19:17;;;;;;;0.10;0.10;;;;;;;;;;5132213;28;20053;-51
2023/09/30 08:21:42;;;;;;;0.20;0.20;;;;;;;;;;5132934;28;20402;-49
2023/09/30 08:24:08;;;;;;;0.10;0.10;;;;;;;;;;5132853;28;20074;-51
2023/09/30 08:26:35;;;;;;;0.10;0.10;;;;;;;;;;5132835;28;20493;-51
2023/09/30 08:29:01;;;;;;;0.13;0.13;;;;;;;;;;5132499;28;20071;-51
2023/09/30 08:31:26;;;;;;;0.10;0.10;;;;;;;;;;5132024;28;20085;-51
2023/09/30 08:33:52;;;;;;;0.10;0.10;;;;;;;;;;5132562;28;20051;-51
2023/09/30 08:36:18;;;;;;;0.10;0.10;;;;;;;;;;5132688;28;20132;-51
2023/09/30 08:38:44;;;;;;;0.47;0.40;;;;;;;;;;5117631;28;20512;-50
2023/09/30 08:41:10;;;;;;;0.20;0.20;;;;;;;;;;5111971;28;20050;-51
2023/09/30 08:43:38;;;;;;;0.10;0.10;;;;;;;;;;5111527;28;20115;-50
2023/09/30 08:46:04;;;;;;;;;;;;;;;;;;5112462;28;20138;-51
2023/09/30 08:48:32;;;;;;;0.10;0.10;;;;;;;;;;5115223;28;19919;-51
2023/09/30 08:50:58;;;;;;;0.70;0.28;;;;;;;;;;5111948;28;20154;-51
2023/09/30 08:53:24;;;;;;;0.10;0.10;;;;;;;;;;5111737;28;20132;-51
2023/09/30 08:55:52;;;;;;;0.20;0.20;;;;;;;;;;5111330;28;20047;-51
2023/09/30 08:58:19;;;;;;;0.10;0.10;;;;;;;;;;5114131;28;20044;-50
2023/09/30 09:00:45;;;;;;;0.10;0.10;;;;;;;;;;5111217;28;20060;-51
2023/09/30 09:03:10;;;;;;;0.10;0.10;;;;;;;;;;5111978;28;20407;-51
2023/09/30 09:05:36;;;;;;;0.10;0.10;;;;;;;;;;5112485;28;20487;-50
2023/09/30 09:08:02;;;;;;;0.20;0.20;;;;;;;;;;5116549;27;20497;-51
2023/09/30 09:10:28;;;;;;;0.10;0.10;;;;;;;;;;5132545;28;20055;-51
2023/09/30 09:12:56;;;;;;;0.10;0.10;;;;;;;;;;5131827;28;20505;-51
2023/09/30 09:15:23;;;;;;;0.10;0.10;;;;;;;;;;5131685;28;20047;-51
2023/09/30 09:17:50;;;;;;;0.10;0.10;;;;;;;;;;5131737;28;20055;-51
2023/09/30 09:20:20;;;;;;;0.20;0.20;;;;;;;;;;5131776;28;20051;-51
2023/09/30 09:22:46;;;;;;;0.10;0.10;;;;;;;;;;5132300;28;20081;-50
2023/09/30 09:25:11;;;;;;;0.10;0.10;;;;;;;;;;5113763;28;20047;-51
2023/09/30 09:27:37;;;;;;;0.10;0.10;;;;;;;;;;5132311;28;20188;-51
2023/09/30 09:30:23;;;;;;;0.10;0.10;;;;;;;;;;5132165;28;20082;-51
2023/09/30 09:33:04;;;;;;;0.10;0.10;;;;;;;;;;5116690;28;20051;-50
2023/09/30 09:35:33;;;;;;;0.10;0.10;;;;;;;;;;5131825;28;20083;-51
2023/09/30 09:37:59;;;;;;;0.10;0.10;;;;;;;;;;5131610;28;20058;-51
2023/09/30 09:40:26;;;;;;;0.10;0.10;;;;;;;;;;5127721;28;20479;-51
2023/09/30 09:42:54;;;;;;;0.10;0.10;;;;;;;;;;5130863;28;20154;-50
2023/09/30 09:45:22;;;;;;;0.10;0.10;;;;;;;;;;5131678;28;20141;-51
2023/09/30 09:47:48;;;;;;;0.10;0.10;;;;;;;;;;5130138;28;20070;-50
2023/09/30 09:50:14;;;;;;;0.10;0.10;;;;;;;;;;5126664;28;20089;-52
2023/09/30 09:52:41;;;;;;;0.10;0.10;;;;;;;;;;5130590;28;20051;-51
2023/09/30 09:55:07;;;;;;;0.20;0.20;;;;;;;;;;5130310;28;20150;-50
2023/09/30 09:57:33;;;;;;;0.10;0.10;;;;;;;;;;5130460;28;20062;-51
2023/09/30 09:59:59;;;;;;;0.10;0.10;;;;;;;;;;5129853;28;20057;-51
2023/09/30 10:02:27;;;;;;;0.10;0.10;;;;;;;;;;5131056;28;20047;-50
2023/09/30 10:04:53;;;;;;;0.10;0.10;;;;;;;;;;5130477;28;20047;-51
2023/09/30 10:07:21;;;;;;;0.10;0.10;;;;;;;;;;5122576;28;20052;-49
2023/09/30 10:09:49;;;;;;;0.10;0.10;;;;;;;;;;5130210;28;20043;-51
2023/09/30 10:12:16;;;;;;;0.10;0.10;;;;;;;;;;5130622;27;20054;-50
2023/09/30 10:14:41;;;;;;;0.10;0.10;;;;;;;;;;5129858;28;20051;-50
2023/09/30 10:17:07;;;;;;;0.10;0.10;;;;;;;;;;5125752;28;20044;-50
2023/09/30 10:19:32;;;;;;;0.10;0.10;;;;;;;;;;5127358;28;20074;-51
2023/09/30 10:22:19;;;;;;;0.10;0.10;;;;;;;;;;5130977;28;20051;-51
2023/09/30 10:24:45;;;;;;;0.10;0.10;;;;;;;;;;5115267;28;20062;-51
2023/09/30 10:30:10;;;;;;;0.10;0.10;;;;;;;;;;5189521;27;20148;-51
2023/09/30 10:32:53;;;;;;;0.10;0.10;;;;;;;;;;5168648;27;20092;-51
2023/09/30 10:35:21;;;;;;;0.10;0.10;;;;;;;;;;5167809;27;20195;-51
2023/09/30 10:37:47;;;;;;;0.10;0.10;;;;;;;;;;5168463;27;20058;-51
2023/09/30 10:40:31;;;;;;;0.10;0.10;;;;;;;;;;5167054;27;20066;-51
2023/09/30 10:42:57;;;;;;;0.10;0.10;;;;;;;;;;5151699;27;20047;-51
2023/09/30 10:45:43;;;;;;;0.10;0.10;;;;;;;;;;5144654;27;20047;-51
2023/09/30 10:48:28;;;;;;;0.10;0.10;;;;;;;;;;5128508;27;20312;-50
2023/09/30 10:50:56;;;;;;;0.10;0.10;;;;;;;;;;5131679;27;20446;-51
2023/09/30 10:53:22;;;;;;;0.10;0.10;;;;;;;;;;5144442;27;20047;-50
2023/09/30 10:55:54;;;;;;;0.13;0.13;;;;;;;;;;5146694;27;20059;-51
2023/09/30 10:58:20;;;;;;;0.10;0.10;;;;;;;;;;5133951;27;20083;-49
2023/09/30 11:00:53;;;;;;;0.10;0.10;;;;;;;;;;5139010;27;20049;-51
2023/09/30 11:03:20;;;;;;;0.20;0.20;;;;;;;;;;5147316;27;20176;-50
2023/09/30 11:05:51;;;;;;;0.10;0.10;;;;;;;;;;5144538;27;20050;-51
2023/09/30 11:08:37;;;;;;;0.10;0.10;;;;;;;;;;5137674;27;20046;-51
2023/09/30 11:11:02;;;;;;;0.10;0.10;;;;;;;;;;5147281;27;20077;-49
2023/09/30 11:13:36;;;;;;;0.10;0.10;;;;;;;;;;5146304;27;20046;-52
2023/09/30 11:16:02;;;;;;;0.10;0.10;;;;;;;;;;5145732;27;20543;-51
2023/09/30 11:18:28;;;;;;;0.30;0.30;;;;;;;;;;5145534;27;20410;-49
2023/09/30 11:21:03;;;;;;;0.17;0.17;;;;;;;;;;5146936;27;20107;-51
2023/09/30 11:23:28;;;;;;;0.22;0.20;;;;;;;;;;5147837;27;20066;-50
2023/09/30 11:25:54;;;;;;;0.10;0.10;;;;;;;;;;5147859;27;20455;-50
2023/09/30 11:28:21;;;;;;;0.10;0.10;;;;;;;;;;5147295;27;20482;-50
2023/09/30 11:30:54;;;;;;;0.10;0.10;;;;;;;;;;5147777;27;20591;-51
2023/09/30 11:33:22;;;;;;;0.10;0.10;;;;;;;;;;5147007;27;20081;-52
2023/09/30 11:35:57;;;;;;;0.10;0.10;;;;;;;;;;5146718;27;20896;-51
2023/09/30 11:38:23;;;;;;;0.10;0.10;;;;;;;;;;5146271;27;20043;-51
2023/09/30 11:41:06;;;;;;;0.10;0.10;;;;;;;;;;5136893;27;20115;-50
2023/09/30 11:43:32;;;;;;;0.10;0.10;;;;;;;;;;5132977;28;20043;-51
2023/09/30 11:46:13;;;;;;;0.10;0.10;;;;;;;;;;5132398;28;20055;-51
2023/09/30 11:48:56;;;;;;;0.10;0.10;;;;;;;;;;5131308;28;20480;-51
2023/09/30 11:51:26;;;;;;;0.10;0.10;;;;;;;;;;5114450;28;20545;-51
2023/09/30 11:53:53;;;;;;;0.10;0.10;;;;;;;;;;5132584;28;20051;-51
2023/09/30 11:56:19;;;;;;;0.20;0.20;;;;;;;;;;5132610;28;20047;-51
2023/09/30 11:58:46;;;;;;;0.10;0.10;;;;;;;;;;5132815;28;20395;-51
2023/09/30 12:01:13;;;;;;;0.10;0.10;;;;;;;;;;5133082;28;20074;-51
2023/09/30 12:03:39;;;;;;;0.10;0.10;;;;;;;;;;5133013;28;20100;-51
2023/09/30 12:06:05;;;;;;;0.10;0.10;;;;;;;;;;5127483;27;20055;-51
2023/09/30 12:08:31;;;;;;;0.10;0.10;;;;;;;;;;5121310;28;20447;-51
2023/09/30 12:10:59;;;;;;;0.10;0.10;;;;;;;;;;5145115;27;20441;-51
2023/09/30 12:13:25;;;;;;;0.10;0.10;;;;;;;;;;5129627;28;20083;-51
2023/09/30 12:15:52;;;;;;;0.10;0.10;;;;;;;;;;5131639;27;20051;-51
2023/09/30 12:18:23;;;;;;;0.10;0.10;;;;;;;;;;5131344;28;20055;-50
2023/09/30 12:20:49;;;;;;;0.10;0.10;;;;;;;;;;5131102;28;20101;-51
2023/09/30 12:23:15;;;;;;;0.10;0.10;;;;;;;;;;5131303;27;20081;-51
2023/09/30 12:25:40;;;;;;;0.10;0.10;;;;;;;;;;5131832;28;20050;-51
2023/09/30 12:28:06;;;;;;;0.10;0.10;;;;;;;;;;5131444;28;20479;-51
2023/09/30 12:30:31;;;;;;;0.10;0.10;;;;;;;;;;5131854;28;20047;-50
2023/09/30 12:32:57;;;;;;;0.10;0.10;;;;;;;;;;5131948;28;20043;-51
2023/09/30 12:35:23;;;;;;;0.10;0.10;;;;;;;;;;5131430;28;20051;-51
2023/09/30 12:37:49;;;;;;;0.20;0.20;;;;;;;;;;5131751;28;20050;-51
2023/09/30 12:40:16;;;;;;;0.10;0.10;;;;;;;;;;5132047;28;20138;-51
2023/09/30 12:42:43;;;;;;;0.10;0.10;;;;;;;;;;5130957;28;20071;-50
2023/09/30 12:45:09;;;;;;;0.10;0.10;;;;;;;;;;5131398;28;20761;-51
2023/09/30 12:47:34;;;;;;;0.10;0.10;;;;;;;;;;5130563;28;20043;-51
2023/09/30 12:50:00;;;;;;;0.10;0.10;;;;;;;;;;5131300;28;20039;-51
2023/09/30 12:52:25;;;;;;;0.10;0.10;;;;;;;;;;5130218;27;20462;-51
2023/09/30 12:54:51;;;;;;;0.10;0.10;;;;;;;;;;5130757;28;20099;-50
2023/09/30 12:57:17;;;;;;;0.10;0.10;;;;;;;;;;5131232;28;20078;-47
2023/09/30 12:59:45;;;;;;;0.10;0.10;;;;;;;;;;5131987;28;20169;-52
2023/09/30 13:02:11;;;;;;;;;;;;;;;;;;5132509;28;20058;-51
2023/09/30 13:04:37;;;;;;;0.10;0.10;;;;;;;;;;5130027;27;19923;-51
2023/09/30 13:07:03;;;;;;;0.10;0.10;;;;;;;;;;5111101;28;20052;-51
2023/09/30 13:09:28;;;;;;;0.10;0.10;;;;;;;;;;5128319;28;20103;-50
2023/09/30 13:11:54;;;;;;;0.10;0.10;;;;;;;;;;5131696;28;20047;-51
2023/09/30 13:14:20;;;;;;;0.10;0.10;;;;;;;;;;5130967;28;20082;-52
2023/09/30 13:16:45;;;;;;;0.20;0.20;;;;;;;;;;5129156;28;20054;-50
2023/09/30 13:19:11;;;;;;;0.10;0.10;;;;;;;;;;5131060;28;20119;-51
2023/09/30 13:21:37;;;;;;;0.10;0.10;;;;;;;;;;5131633;28;20139;-51
2023/09/30 13:24:06;;;;;;;0.10;0.10;;;;;;;;;;5130702;28;20452;-51
2023/09/30 13:26:33;;;;;;;0.10;0.10;;;;;;;;;;5131917;27;20047;-51
2023/09/30 13:28:58;;;;;;;0.10;0.10;;;;;;;;;;5118001;27;20102;-51
2023/09/30 13:31:24;;;;;;;0.10;0.10;;;;;;;;;;5111056;28;20464;-50
2023/09/30 13:33:50;;;;;;;0.10;0.10;;;;;;;;;;5110780;28;20048;-51
2023/09/30 13:36:15;;;;;;;0.15;0.15;;;;;;;;;;5109958;28;20431;-51
2023/09/30 13:38:41;;;;;;;0.10;0.10;;;;;;;;;;5110669;28;20496;-49
2023/09/30 13:41:06;;;;;;;0.10;0.10;;;;;;;;;;5110989;28;20052;-50
2023/09/30 13:43:32;;;;;;;0.10;0.10;;;;;;;;;;5110418;28;20050;-50
2023/09/30 13:45:57;;;;;;;0.10;0.10;;;;;;;;;;5111059;28;20514;-50
2023/09/30 13:48:24;;;;;;;0.10;0.10;;;;;;;;;;5109985;28;20516;-51
2023/09/30 13:50:49;;;;;;;0.10;0.10;;;;;;;;;;5110785;28;20048;-50
2023/09/30 13:53:15;;;;;;;0.10;0.10;;;;;;;;;;5110340;28;20058;-51
2023/09/30 13:55:41;;;;;;;0.10;0.10;;;;;;;;;;5109630;28;20043;-51
2023/09/30 13:58:07;;;;;;;0.10;0.10;;;;;;;;;;5110279;28;20051;-51
2023/09/30 14:00:32;;;;;;;0.10;0.10;;;;;;;;;;5110519;28;20046;-51
2023/09/30 14:02:59;;;;;;;0.57;0.57;;;;;;;;;;5110555;28;20130;-51
2023/09/30 14:05:25;;;;;;;0.10;0.10;;;;;;;;;;5125777;27;20493;-51
2023/09/30 14:07:51;;;;;;;0.10;0.10;;;;;;;;;;5148007;27;20047;-51
2023/09/30 14:10:16;;;;;;;0.10;0.10;;;;;;;;;;5131461;28;20058;-51
2023/09/30 14:12:42;;;;;;;0.10;0.10;;;;;;;;;;5131340;28;20043;-51
2023/09/30 14:15:08;;;;;;;0.10;0.10;;;;;;;;;;5130137;28;20087;-51
2023/09/30 14:17:34;;;;;;;0.10;0.10;;;;;;;;;;5128651;28;20078;-51
2023/09/30 14:20:00;;;;;;;0.10;0.10;;;;;;;;;;5109582;28;20508;-50
2023/09/30 14:22:26;;;;;;;0.10;0.10;;;;;;;;;;5110165;28;20047;-51
2023/09/30 14:24:52;;;;;;;0.20;0.20;;;;;;;;;;5120721;28;20068;-51
2023/09/30 14:27:20;;;;;;;0.10;0.10;;;;;;;;;;5130358;28;20479;-51
2023/09/30 14:29:45;;;;;;;0.10;0.10;;;;;;;;;;5130172;28;20248;-51
2023/09/30 14:32:11;;;;;;;0.20;0.20;;;;;;;;;;5130791;28;20088;-51
2023/09/30 14:34:37;;;;;;;0.10;0.10;;;;;;;;;;5130104;28;20047;-51
2023/09/30 14:37:02;;;;;;;0.10;0.10;;;;;;;;;;5130204;28;20046;-51
2023/09/30 14:39:28;;;;;;;0.10;0.10;;;;;;;;;;5130193;28;20047;-51
2023/09/30 14:41:53;;;;;;;0.10;0.10;;;;;;;;;;5130502;28;20047;-51
2023/09/30 14:44:21;;;;;;;0.10;0.10;;;;;;;;;;5130412;28;20051;-51